Time;durP1;ratioP1;P1;durP2;ratioP2;P2;SDS_P1;SDS_P2;PMS_P1;PMS_P2;Temp;Humidity;BMP_temperature;BMP_pressure;BME280_temperature;BME280_humidity;BME280_pressure;Samples;Min_cycle;Max_cycle;Signal;HPM_P1;HPM_P2
2023/10/25 00:01:11;;;;;;;5.93;1.73;;;;;;;;;;4969864;28;95983;-83
2023/10/25 00:03:38;;;;;;;4.80;1.83;;;;;;;;;;4967720;28;93629;-83
2023/10/25 00:06:05;;;;;;;8.40;2.08;;;;;;;;;;4968045;28;92936;-81
2023/10/25 00:08:31;;;;;;;4.65;1.80;;;;;;;;;;4969035;28;95546;-82
2023/10/25 00:11:02;;;;;;;4.72;1.75;;;;;;;;;;4968751;28;92978;-83
2023/10/25 00:13:28;;;;;;;4.57;1.88;;;;;;;;;;4968339;28;92486;-83
2023/10/25 00:15:55;;;;;;;4.65;2.08;;;;;;;;;;4969864;28;91669;-82
2023/10/25 00:18:21;;;;;;;4.50;1.80;;;;;;;;;;4969248;28;93063;-82
2023/10/25 00:20:48;;;;;;;6.35;1.95;;;;;;;;;;4970725;28;93536;-83
2023/10/25 00:23:14;;;;;;;7.20;2.10;;;;;;;;;;4955761;28;96006;-83
2023/10/25 00:25:41;;;;;;;6.45;1.75;;;;;;;;;;4967655;28;94414;-82
2023/10/25 00:28:07;;;;;;;5.80;1.92;;;;;;;;;;4967712;28;93450;-82
2023/10/25 00:30:34;;;;;;;7.97;1.90;;;;;;;;;;4973601;28;93264;-82
2023/10/25 00:33:00;;;;;;;5.47;1.95;;;;;;;;;;4967984;28;93702;-83
2023/10/25 00:35:27;;;;;;;4.28;2.00;;;;;;;;;;4966034;28;95696;-83
2023/10/25 00:37:54;;;;;;;5.70;1.70;;;;;;;;;;4967622;28;94004;-83
2023/10/25 00:40:20;;;;;;;6.05;1.73;;;;;;;;;;4968450;28;92689;-83
2023/10/25 00:42:47;;;;;;;6.35;1.92;;;;;;;;;;4967522;28;93096;-83
2023/10/25 00:45:13;;;;;;;4.65;1.77;;;;;;;;;;4971624;28;92627;-83
2023/10/25 00:47:40;;;;;;;4.50;1.80;;;;;;;;;;4965070;28;95973;-82
2023/10/25 00:50:08;;;;;;;4.78;1.70;;;;;;;;;;4968776;28;93219;-82
2023/10/25 00:52:36;;;;;;;5.68;1.95;;;;;;;;;;4968180;28;92909;-83
2023/10/25 00:55:03;;;;;;;5.20;1.80;;;;;;;;;;4972243;28;93285;-83
2023/10/25 00:57:31;;;;;;;4.20;1.65;;;;;;;;;;4968292;28;92813;-83
2023/10/25 01:00:00;;;;;;;4.57;1.80;;;;;;;;;;4966455;28;95568;-83
2023/10/25 01:02:27;;;;;;;5.03;2.15;;;;;;;;;;4969027;28;94695;-83
2023/10/25 01:04:53;;;;;;;4.80;1.90;;;;;;;;;;4971525;28;91704;-83
2023/10/25 01:07:20;;;;;;;4.88;1.80;;;;;;;;;;4970047;28;94102;-83
2023/10/25 01:09:47;;;;;;;4.82;1.80;;;;;;;;;;4969291;28;93176;-83
2023/10/25 01:12:13;;;;;;;5.65;1.77;;;;;;;;;;4968317;28;95327;-83
2023/10/25 01:14:40;;;;;;;5.97;1.90;;;;;;;;;;4969267;28;94318;-83
2023/10/25 01:17:07;;;;;;;4.60;1.85;;;;;;;;;;4958063;28;92438;-83
2023/10/25 01:19:33;;;;;;;4.03;1.80;;;;;;;;;;4970817;28;92786;-83
2023/10/25 01:22:00;;;;;;;6.13;1.67;;;;;;;;;;4971275;28;92536;-83
2023/10/25 01:24:26;;;;;;;4.97;1.70;;;;;;;;;;4967634;28;92693;-84
2023/10/25 01:26:53;;;;;;;6.03;1.85;;;;;;;;;;4971217;28;93126;-84
2023/10/25 01:29:20;;;;;;;5.15;1.80;;;;;;;;;;4972999;28;94012;-83
2023/10/25 01:31:46;;;;;;;4.75;1.73;;;;;;;;;;4971098;28;92488;-83
2023/10/25 01:34:13;;;;;;;5.80;1.80;;;;;;;;;;4971064;28;94097;-83
2023/10/25 01:36:40;;;;;;;5.90;1.90;;;;;;;;;;4968117;28;94980;-83
2023/10/25 01:39:06;;;;;;;4.32;1.75;;;;;;;;;;4970847;28;95041;-83
2023/10/25 01:41:33;;;;;;;4.10;1.73;;;;;;;;;;4970796;28;93230;-83
2023/10/25 01:43:59;;;;;;;5.40;1.85;;;;;;;;;;4971174;28;92809;-83
2023/10/25 01:46:26;;;;;;;5.03;1.98;;;;;;;;;;4971958;28;94132;-84
2023/10/25 01:48:52;;;;;;;4.97;1.70;;;;;;;;;;4970285;28;92956;-83
2023/10/25 01:51:19;;;;;;;3.50;1.60;;;;;;;;;;4969629;28;92474;-83
2023/10/25 01:53:46;;;;;;;4.75;1.60;;;;;;;;;;4968536;28;93029;-83
2023/10/25 01:56:12;;;;;;;4.82;1.70;;;;;;;;;;4972347;28;93646;-84
2023/10/25 01:58:38;;;;;;;5.30;1.92;;;;;;;;;;4967927;28;95468;-83
2023/10/25 02:01:08;;;;;;;4.30;1.85;;;;;;;;;;4963907;28;96337;-83
2023/10/25 02:03:35;;;;;;;5.47;1.77;;;;;;;;;;4968104;28;92454;-84
2023/10/25 02:06:15;;;;;;;5.10;1.75;;;;;;;;;;4967854;28;95915;-84
2023/10/25 02:08:41;;;;;;;4.65;1.75;;;;;;;;;;4967264;28;97844;-84
2023/10/25 02:11:08;;;;;;;5.38;1.58;;;;;;;;;;4970527;28;92484;-84
2023/10/25 02:13:34;;;;;;;4.30;1.60;;;;;;;;;;4970613;28;92943;-83
2023/10/25 02:16:15;;;;;;;7.50;1.60;;;;;;;;;;4979525;28;93042;-83
2023/10/25 02:18:41;;;;;;;5.13;1.80;;;;;;;;;;4973367;28;91756;-82
2023/10/25 02:21:09;;;;;;;5.85;1.92;;;;;;;;;;4968964;28;93109;-82
2023/10/25 02:23:35;;;;;;;5.05;1.70;;;;;;;;;;4967507;28;92739;-82
2023/10/25 02:26:02;;;;;;;5.90;1.63;;;;;;;;;;4967910;28;94935;-83
2023/10/25 02:28:28;;;;;;;5.80;1.58;;;;;;;;;;4968191;28;92428;-83
2023/10/25 02:30:55;;;;;;;5.32;1.80;;;;;;;;;;4973015;28;92931;-83
2023/10/25 02:33:21;;;;;;;4.88;1.77;;;;;;;;;;4969942;28;93140;-83
2023/10/25 02:35:49;;;;;;;5.60;1.70;;;;;;;;;;4966279;28;94044;-83
2023/10/25 02:38:15;;;;;;;5.95;1.90;;;;;;;;;;4968142;28;92977;-81
2023/10/25 02:40:41;;;;;;;6.13;1.70;;;;;;;;;;4973467;28;93353;-85
2023/10/25 02:43:08;;;;;;;5.53;1.80;;;;;;;;;;4978594;28;91689;-84
2023/10/25 02:45:35;;;;;;;5.88;1.90;;;;;;;;;;4971271;28;92748;-84
2023/10/25 02:48:01;;;;;;;3.83;1.60;;;;;;;;;;4971602;28;93306;-84
2023/10/25 02:50:28;;;;;;;;;;;;;;;;;;4965567;28;94988;-84
2023/10/25 02:52:57;;;;;;;4.43;1.50;;;;;;;;;;4968635;28;101780;-83
2023/10/25 02:55:24;;;;;;;9.68;2.28;;;;;;;;;;4966700;28;93357;-83
2023/10/25 02:57:51;;;;;;;5.15;1.70;;;;;;;;;;4962543;28;92758;-83
2023/10/25 03:00:18;;;;;;;5.50;1.60;;;;;;;;;;4971108;28;94118;-82
2023/10/25 03:02:44;;;;;;;10.48;2.00;;;;;;;;;;4966946;28;92571;-82
2023/10/25 03:05:11;;;;;;;5.32;1.90;;;;;;;;;;4968771;28;93989;-83
2023/10/25 03:07:38;;;;;;;6.25;1.67;;;;;;;;;;4984286;28;93513;-82
2023/10/25 03:10:05;;;;;;;5.22;1.65;;;;;;;;;;4968356;28;92464;-78
2023/10/25 03:12:32;;;;;;;6.30;1.90;;;;;;;;;;4955807;28;93061;-82
2023/10/25 03:14:59;;;;;;;7.07;1.88;;;;;;;;;;4967122;28;97062;-82
2023/10/25 03:17:28;;;;;;;8.13;1.92;;;;;;;;;;4967145;28;92574;-83
2023/10/25 03:19:54;;;;;;;5.68;1.80;;;;;;;;;;4983335;28;93826;-82
2023/10/25 03:22:21;;;;;;;4.18;1.75;;;;;;;;;;4971217;28;94121;-83
2023/10/25 03:24:48;;;;;;;4.45;1.60;;;;;;;;;;4968006;28;93156;-83
2023/10/25 03:27:14;;;;;;;5.13;1.70;;;;;;;;;;4966841;28;93074;-83
2023/10/25 03:29:42;;;;;;;3.42;1.30;;;;;;;;;;4965472;28;92571;-83
2023/10/25 03:32:09;;;;;;;4.70;1.80;;;;;;;;;;4971242;28;92782;-83
2023/10/25 03:34:35;;;;;;;4.63;1.70;;;;;;;;;;4966782;28;94303;-83
2023/10/25 03:37:02;;;;;;;5.97;1.90;;;;;;;;;;4968406;28;92417;-83
2023/10/25 03:39:28;;;;;;;5.65;1.80;;;;;;;;;;4966523;28;94783;-81
2023/10/25 03:41:55;;;;;;;4.78;1.77;;;;;;;;;;4969390;28;93072;-81
2023/10/25 03:44:21;;;;;;;4.82;1.60;;;;;;;;;;4970633;28;92617;-80
2023/10/25 03:46:48;;;;;;;6.28;1.77;;;;;;;;;;4967886;28;93234;-83
2023/10/25 03:49:15;;;;;;;4.55;1.83;;;;;;;;;;4967686;28;92456;-82
2023/10/25 03:51:42;;;;;;;4.95;1.63;;;;;;;;;;4966718;28;92940;-82
2023/10/25 03:54:08;;;;;;;3.97;1.65;;;;;;;;;;4959750;28;93122;-82
2023/10/25 03:56:35;;;;;;;5.18;1.80;;;;;;;;;;4968115;28;91763;-82
2023/10/25 03:59:02;;;;;;;5.03;1.75;;;;;;;;;;4967889;28;92559;-83
2023/10/25 04:01:28;;;;;;;5.70;1.63;;;;;;;;;;4969308;28;93515;-83
2023/10/25 04:03:55;;;;;;;5.18;1.73;;;;;;;;;;4966143;28;95205;-82
2023/10/25 04:06:22;;;;;;;6.18;2.08;;;;;;;;;;4970184;28;95690;-82
2023/10/25 04:08:49;;;;;;;3.95;1.50;;;;;;;;;;4967378;28;92910;-83
2023/10/25 04:11:15;;;;;;;6.57;1.73;;;;;;;;;;4968008;28;93176;-83
2023/10/25 04:13:43;;;;;;;5.45;1.85;;;;;;;;;;4967414;28;93559;-83
2023/10/25 04:16:10;;;;;;;7.65;1.95;;;;;;;;;;4967720;28;92525;-82
2023/10/25 04:18:37;;;;;;;8.93;2.10;;;;;;;;;;4967999;28;92741;-82
2023/10/25 04:21:08;;;;;;;4.65;1.85;;;;;;;;;;4967112;28;92329;-84
2023/10/25 04:23:35;;;;;;;7.40;1.92;;;;;;;;;;4966625;28;92859;-83
2023/10/25 04:26:08;;;;;;;9.55;2.15;;;;;;;;;;4960788;28;92928;-83
2023/10/25 04:28:36;;;;;;;5.78;1.70;;;;;;;;;;4968528;28;100417;-83
2023/10/25 04:31:02;;;;;;;7.20;1.77;;;;;;;;;;4970109;28;96501;-84
2023/10/25 04:33:29;;;;;;;4.32;1.60;;;;;;;;;;4957074;28;93143;-83
2023/10/25 04:35:56;;;;;;;4.78;1.65;;;;;;;;;;4964486;28;93268;-83
2023/10/25 04:38:23;;;;;;;4.95;1.70;;;;;;;;;;4964976;28;95506;-83
2023/10/25 04:40:51;;;;;;;5.03;1.83;;;;;;;;;;4968071;28;93275;-84
2023/10/25 04:43:17;;;;;;;6.53;1.98;;;;;;;;;;4966625;28;92562;-85
2023/10/25 04:45:44;;;;;;;4.18;1.80;;;;;;;;;;4966040;28;93395;-83
2023/10/25 04:48:10;;;;;;;4.00;1.50;;;;;;;;;;4966601;28;93504;-83
2023/10/25 04:50:37;;;;;;;4.35;1.65;;;;;;;;;;4970456;28;92432;-83
2023/10/25 04:53:04;;;;;;;4.00;1.55;;;;;;;;;;4968129;28;95895;-83
2023/10/25 04:55:31;;;;;;;6.15;1.90;;;;;;;;;;4974524;28;93025;-82
2023/10/25 04:57:58;;;;;;;6.05;1.70;;;;;;;;;;4967547;28;92754;-82
2023/10/25 05:00:24;;;;;;;5.28;1.75;;;;;;;;;;4967953;28;99686;-82
2023/10/25 05:02:51;;;;;;;3.63;1.55;;;;;;;;;;4967435;28;92849;-83
2023/10/25 05:05:18;;;;;;;4.32;1.60;;;;;;;;;;4967481;28;93171;-83
2023/10/25 05:07:46;;;;;;;5.50;1.80;;;;;;;;;;4967140;28;99827;-82
2023/10/25 05:10:12;;;;;;;5.18;2.00;;;;;;;;;;4961065;28;91809;-82
2023/10/25 05:12:44;;;;;;;5.43;1.60;;;;;;;;;;4967221;28;94404;-81
2023/10/25 05:15:12;;;;;;;5.47;1.92;;;;;;;;;;4968093;28;92875;-83
2023/10/25 05:17:38;;;;;;;5.30;1.63;;;;;;;;;;4953221;28;94829;-82
2023/10/25 05:20:06;;;;;;;3.95;1.70;;;;;;;;;;4982487;28;95849;-80
2023/10/25 05:22:37;;;;;;;4.82;1.83;;;;;;;;;;4966376;28;92489;-82
2023/10/25 05:25:04;;;;;;;4.75;1.52;;;;;;;;;;4966262;28;95578;-81
2023/10/25 05:27:34;;;;;;;5.78;1.80;;;;;;;;;;4968248;28;92363;-82
2023/10/25 05:30:04;;;;;;;6.97;1.90;;;;;;;;;;4965809;28;92545;-81
2023/10/25 05:32:32;;;;;;;4.72;1.65;;;;;;;;;;4973872;28;98546;-82
2023/10/25 05:34:59;;;;;;;7.88;2.25;;;;;;;;;;4967961;28;92236;-81
2023/10/25 05:37:26;;;;;;;5.38;1.85;;;;;;;;;;4967852;28;93804;-80
2023/10/25 05:39:53;;;;;;;6.80;1.80;;;;;;;;;;4968059;28;93056;-81
2023/10/25 05:42:20;;;;;;;5.40;1.65;;;;;;;;;;4965626;28;101764;-81
2023/10/25 05:44:54;;;;;;;5.32;1.90;;;;;;;;;;4967652;28;96204;-81
2023/10/25 05:47:21;;;;;;;5.93;1.80;;;;;;;;;;4970689;28;93734;-82
2023/10/25 05:49:48;;;;;;;4.80;1.80;;;;;;;;;;4972340;28;92398;-81
2023/10/25 05:52:15;;;;;;;4.38;1.73;;;;;;;;;;4976420;28;92783;-81
2023/10/25 05:54:42;;;;;;;4.28;1.60;;;;;;;;;;4975606;28;92821;-81
2023/10/25 05:57:09;;;;;;;5.07;1.65;;;;;;;;;;4968532;28;93850;-81
2023/10/25 05:59:36;;;;;;;5.85;1.60;;;;;;;;;;4971430;28;92252;-81
2023/10/25 06:02:09;;;;;;;6.97;1.67;;;;;;;;;;4971624;28;92575;-81
2023/10/25 06:04:36;;;;;;;;;;;;;;;;;;4987152;28;99312;-81
2023/10/25 06:07:03;;;;;;;4.97;1.48;;;;;;;;;;4970442;28;110971;-81
2023/10/25 06:09:30;;;;;;;4.90;1.60;;;;;;;;;;4969913;28;92522;-80
2023/10/25 06:11:57;;;;;;;4.10;1.70;;;;;;;;;;4970475;28;93364;-81
2023/10/25 06:14:23;;;;;;;6.78;1.67;;;;;;;;;;4970918;28;93348;-81
2023/10/25 06:16:50;;;;;;;4.82;1.65;;;;;;;;;;4980218;28;92606;-81
2023/10/25 06:19:17;;;;;;;3.45;1.38;;;;;;;;;;4973078;28;93039;-81
2023/10/25 06:21:43;;;;;;;3.88;1.58;;;;;;;;;;4972766;28;92406;-82
2023/10/25 06:24:10;;;;;;;5.57;1.50;;;;;;;;;;4979079;28;93100;-82
2023/10/25 06:26:37;;;;;;;3.90;1.42;;;;;;;;;;4970507;28;95039;-81
2023/10/25 06:29:03;;;;;;;3.03;1.33;;;;;;;;;;4978256;28;92326;-81
2023/10/25 06:31:30;;;;;;;3.97;1.50;;;;;;;;;;4981647;28;94823;-81
2023/10/25 06:33:56;;;;;;;3.42;1.40;;;;;;;;;;4982076;28;92846;-81
2023/10/25 06:36:23;;;;;;;3.40;1.50;;;;;;;;;;4952270;28;92449;-82
2023/10/25 06:38:50;;;;;;;5.43;1.58;;;;;;;;;;4969456;28;92787;-81
2023/10/25 06:41:17;;;;;;;3.35;1.30;;;;;;;;;;4973325;28;92490;-81
2023/10/25 06:43:44;;;;;;;4.70;1.60;;;;;;;;;;4973003;28;92897;-80
2023/10/25 06:46:11;;;;;;;3.70;1.40;;;;;;;;;;4971492;28;93241;-81
2023/10/25 06:48:38;;;;;;;5.47;1.60;;;;;;;;;;4971936;28;92094;-82
2023/10/25 06:51:05;;;;;;;5.20;1.50;;;;;;;;;;4969259;28;94865;-81
2023/10/25 06:53:32;;;;;;;5.32;1.65;;;;;;;;;;4970415;28;93430;-81
2023/10/25 06:55:59;;;;;;;5.22;1.70;;;;;;;;;;4968418;28;95466;-81
2023/10/25 06:58:26;;;;;;;3.42;1.33;;;;;;;;;;4973116;28;95089;-81
2023/10/25 07:00:55;;;;;;;5.20;1.80;;;;;;;;;;4967658;28;92401;-82
2023/10/25 07:03:27;;;;;;;3.90;1.67;;;;;;;;;;4971277;28;92550;-83
2023/10/25 07:05:55;;;;;;;6.25;1.88;;;;;;;;;;4970437;28;92947;-82
2023/10/25 07:08:21;;;;;;;6.25;1.80;;;;;;;;;;4970192;28;92652;-83
2023/10/25 07:10:49;;;;;;;4.57;1.90;;;;;;;;;;4974924;28;92465;-83
2023/10/25 07:13:16;;;;;;;6.82;2.13;;;;;;;;;;4964851;28;92531;-81
2023/10/25 07:15:42;;;;;;;7.93;2.00;;;;;;;;;;4966138;28;92441;-81
2023/10/25 07:18:09;;;;;;;5.88;2.10;;;;;;;;;;4968226;28;93515;-82
2023/10/25 07:20:35;;;;;;;6.53;2.13;;;;;;;;;;4967799;28;95643;-82
2023/10/25 07:23:04;;;;;;;5.40;1.98;;;;;;;;;;4969194;28;95220;-82
2023/10/25 07:25:31;;;;;;;7.20;1.90;;;;;;;;;;4968804;28;93290;-82
2023/10/25 07:27:58;;;;;;;8.10;1.90;;;;;;;;;;4968183;28;92541;-82
2023/10/25 07:30:25;;;;;;;6.55;2.00;;;;;;;;;;4955491;28;92630;-83
2023/10/25 07:32:51;;;;;;;7.22;2.10;;;;;;;;;;4961331;28;93273;-83
2023/10/25 07:35:18;;;;;;;4.78;1.80;;;;;;;;;;4956999;28;93789;-83
2023/10/25 07:37:44;;;;;;;5.40;1.80;;;;;;;;;;4968725;28;91700;-83
2023/10/25 07:40:11;;;;;;;4.75;2.10;;;;;;;;;;4953090;28;95313;-82
2023/10/25 07:42:37;;;;;;;6.25;1.95;;;;;;;;;;4981763;28;92582;-81
2023/10/25 07:45:04;;;;;;;6.25;2.00;;;;;;;;;;4964807;28;96679;-82
2023/10/25 07:47:31;;;;;;;5.70;2.00;;;;;;;;;;4967817;28;92707;-82
2023/10/25 07:49:58;;;;;;;5.20;2.00;;;;;;;;;;4962050;28;92949;-82
2023/10/25 07:52:27;;;;;;;5.68;2.08;;;;;;;;;;4965206;28;95780;-82
2023/10/25 07:54:54;;;;;;;5.82;1.92;;;;;;;;;;4965563;28;92923;-83
2023/10/25 07:57:20;;;;;;;5.50;1.92;;;;;;;;;;4966484;28;92810;-82
2023/10/25 08:00:09;;;;;;;3.92;1.70;;;;;;;;;;4966007;28;95223;-82
2023/10/25 08:02:39;;;;;;;5.25;1.83;;;;;;;;;;4974182;28;92458;-82
2023/10/25 08:05:05;;;;;;;6.00;1.83;;;;;;;;;;4969219;28;92596;-83
2023/10/25 08:07:36;;;;;;;5.60;1.83;;;;;;;;;;4967901;28;92490;-83
2023/10/25 08:10:05;;;;;;;3.88;1.63;;;;;;;;;;4965457;28;94845;-83
2023/10/25 08:12:35;;;;;;;5.85;1.80;;;;;;;;;;4968099;28;97540;-83
2023/10/25 08:15:02;;;;;;;4.03;1.65;;;;;;;;;;4968454;28;92665;-84
2023/10/25 08:17:28;;;;;;;4.45;1.70;;;;;;;;;;4968579;28;92786;-84
2023/10/25 08:19:55;;;;;;;4.03;1.70;;;;;;;;;;4967015;28;93328;-83
2023/10/25 08:22:22;;;;;;;4.57;1.73;;;;;;;;;;4966169;28;92805;-83
2023/10/25 08:24:48;;;;;;;6.88;1.70;;;;;;;;;;4968370;28;92733;-83
2023/10/25 08:27:15;;;;;;;5.38;1.60;;;;;;;;;;4972294;28;92754;-83
2023/10/25 08:29:41;;;;;;;4.53;1.70;;;;;;;;;;4961205;28;92503;-83
2023/10/25 08:32:08;;;;;;;4.10;1.60;;;;;;;;;;4981130;28;93152;-83
2023/10/25 08:34:34;;;;;;;4.53;1.60;;;;;;;;;;4968442;28;94847;-83
2023/10/25 08:37:01;;;;;;;5.55;1.50;;;;;;;;;;4966908;28;95229;-83
2023/10/25 08:39:27;;;;;;;2.92;1.50;;;;;;;;;;4966961;28;93142;-84
2023/10/25 08:41:54;;;;;;;4.05;1.67;;;;;;;;;;4967182;28;92494;-83
2023/10/25 08:44:20;;;;;;;6.15;1.48;;;;;;;;;;4966817;28;92775;-83
2023/10/25 08:46:49;;;;;;;4.45;1.65;;;;;;;;;;4967786;28;92908;-83
2023/10/25 08:49:15;;;;;;;4.22;1.60;;;;;;;;;;4970866;28;92846;-83
2023/10/25 08:51:44;;;;;;;4.63;1.48;;;;;;;;;;4968749;28;92070;-83
2023/10/25 08:54:11;;;;;;;4.07;1.60;;;;;;;;;;4967587;28;92539;-82
2023/10/25 08:56:38;;;;;;;3.65;1.50;;;;;;;;;;4976595;28;93494;-83
2023/10/25 08:59:05;;;;;;;3.33;1.42;;;;;;;;;;4970302;28;96142;-83
2023/10/25 09:01:32;;;;;;;3.30;1.23;;;;;;;;;;4969160;28;93090;-83
2023/10/25 09:04:04;;;;;;;3.25;1.50;;;;;;;;;;4967443;28;92773;-83
2023/10/25 09:06:31;;;;;;;3.83;1.38;;;;;;;;;;4967434;28;97747;-83
2023/10/25 09:08:59;;;;;;;;;;;;;;;;;;4969127;28;93060;-84
2023/10/25 09:11:36;;;;;;;3.45;1.40;;;;;;;;;;4967803;28;115073;-83
2023/10/25 09:14:03;;;;;;;3.75;1.50;;;;;;;;;;4967470;28;92371;-83
2023/10/25 09:16:30;;;;;;;3.55;1.45;;;;;;;;;;4966851;28;92717;-83
2023/10/25 09:18:58;;;;;;;3.28;1.40;;;;;;;;;;4967500;28;93294;-83
2023/10/25 09:21:25;;;;;;;4.10;1.60;;;;;;;;;;4968700;28;92388;-83
2023/10/25 09:23:51;;;;;;;;;;;;;;;;;;4968110;28;95050;-83
2023/10/25 09:26:18;;;;;;;2.88;1.33;;;;;;;;;;4970935;28;106023;-83
2023/10/25 09:28:48;;;;;;;3.67;1.42;;;;;;;;;;4972185;28;93263;-82
2023/10/25 09:31:23;;;;;;;3.38;1.40;;;;;;;;;;4966798;28;92818;-83
2023/10/25 09:33:51;;;;;;;3.65;1.50;;;;;;;;;;4965783;28;92474;-83
2023/10/25 09:36:21;;;;;;;3.08;1.38;;;;;;;;;;4964364;28;93210;-83
2023/10/25 09:38:49;;;;;;;2.92;1.42;;;;;;;;;;4970599;28;93310;-83
2023/10/25 09:41:18;;;;;;;3.03;1.50;;;;;;;;;;4970473;28;91767;-83
2023/10/25 09:43:49;;;;;;;4.50;1.40;;;;;;;;;;4968331;28;92554;-82
2023/10/25 09:46:18;;;;;;;3.85;1.52;;;;;;;;;;4969872;28;92602;-82
2023/10/25 09:48:50;;;;;;;5.15;1.50;;;;;;;;;;4968520;28;95081;-83
2023/10/25 09:51:20;;;;;;;5.28;1.60;;;;;;;;;;4963960;28;95290;-83
2023/10/25 09:53:50;;;;;;;3.17;1.38;;;;;;;;;;4971867;28;93474;-82
2023/10/25 09:56:18;;;;;;;4.40;1.55;;;;;;;;;;4968974;28;93725;-83
2023/10/25 09:58:45;;;;;;;4.22;1.50;;;;;;;;;;4971021;28;95764;-83
2023/10/25 10:01:12;;;;;;;4.15;1.63;;;;;;;;;;4967371;28;92852;-83
2023/10/25 10:03:48;;;;;;;3.83;1.52;;;;;;;;;;4971331;28;93170;-82
2023/10/25 10:06:22;;;;;;;5.07;1.40;;;;;;;;;;4970516;28;91893;-84
2023/10/25 10:08:56;;;;;;;3.75;1.40;;;;;;;;;;4966680;28;93028;-82
2023/10/25 10:11:25;;;;;;;5.72;1.42;;;;;;;;;;4969884;28;93110;-82
2023/10/25 10:14:12;;;;;;;4.00;1.55;;;;;;;;;;4968493;28;95429;-83
2023/10/25 10:16:39;;;;;;;3.90;1.50;;;;;;;;;;4974279;28;93917;-83
2023/10/25 10:19:10;;;;;;;6.63;1.70;;;;;;;;;;4963725;28;92451;-84
2023/10/25 10:21:56;;;;;;;3.00;1.30;;;;;;;;;;4980702;28;92521;-83
2023/10/25 10:24:42;;;;;;;6.47;1.80;;;;;;;;;;4962750;28;92920;-84
2023/10/25 10:27:10;;;;;;;4.00;1.30;;;;;;;;;;4952690;28;93146;-83
2023/10/25 10:29:38;;;;;;;4.88;1.50;;;;;;;;;;4963079;28;92666;-83
2023/10/25 10:32:06;;;;;;;4.03;1.33;;;;;;;;;;4969384;28;92655;-82
2023/10/25 10:34:44;;;;;;;4.60;1.50;;;;;;;;;;4968312;28;98098;-81
2023/10/25 10:37:13;;;;;;;3.72;1.60;;;;;;;;;;4966780;28;92904;-81
2023/10/25 10:39:58;;;;;;;3.97;1.25;;;;;;;;;;4970795;28;95183;-81
2023/10/25 10:42:30;;;;;;;4.65;1.50;;;;;;;;;;4969322;28;93278;-82
2023/10/25 10:44:57;;;;;;;4.22;1.40;;;;;;;;;;4973802;28;92603;-81
2023/10/25 10:47:36;;;;;;;3.65;1.50;;;;;;;;;;4969828;28;92413;-81
2023/10/25 10:50:12;;;;;;;5.68;1.50;;;;;;;;;;4970204;28;92923;-81
2023/10/25 10:52:40;;;;;;;4.82;1.42;;;;;;;;;;4963157;28;96952;-81
2023/10/25 10:55:06;;;;;;;;;;;;;;;;;;4970343;28;93174;-80
2023/10/25 10:57:33;;;;;;;3.10;1.30;;;;;;;;;;4967153;28;92142;-81
2023/10/25 11:00:00;;;;;;;3.47;1.25;;;;;;;;;;4970084;28;99641;-81
2023/10/25 11:02:26;;;;;;;4.13;1.40;;;;;;;;;;4971552;28;94264;-81
2023/10/25 11:04:53;;;;;;;4.50;1.48;;;;;;;;;;4968744;28;95056;-81
2023/10/25 11:07:19;;;;;;;4.18;1.38;;;;;;;;;;4969278;28;93172;-81
2023/10/25 11:09:46;;;;;;;3.60;1.50;;;;;;;;;;4968709;28;93216;-81
2023/10/25 11:12:14;;;;;;;3.47;1.30;;;;;;;;;;4966991;28;95822;-81
2023/10/25 11:14:42;;;;;;;3.78;1.40;;;;;;;;;;4985593;28;92789;-82
2023/10/25 11:17:09;;;;;;;3.10;1.45;;;;;;;;;;4968671;28;93040;-82
2023/10/25 11:19:35;;;;;;;4.60;1.42;;;;;;;;;;4969079;28;92682;-83
2023/10/25 11:22:02;;;;;;;4.30;1.40;;;;;;;;;;4973039;28;92711;-82
2023/10/25 11:24:29;;;;;;;4.60;1.38;;;;;;;;;;4968006;28;92663;-82
2023/10/25 11:26:56;;;;;;;3.22;1.15;;;;;;;;;;4968880;28;92967;-82
2023/10/25 11:29:23;;;;;;;3.17;1.25;;;;;;;;;;4966413;28;95306;-82
2023/10/25 11:31:50;;;;;;;4.75;1.30;;;;;;;;;;4966050;28;95720;-81
2023/10/25 11:34:16;;;;;;;;;;;;;;;;;;4966290;28;93726;-82
2023/10/25 11:36:43;;;;;;;4.82;1.77;;;;;;;;;;4968312;28;105213;-83
2023/10/25 11:39:10;;;;;;;3.47;1.40;;;;;;;;;;4966407;28;94061;-81
2023/10/25 11:41:37;;;;;;;3.13;1.30;;;;;;;;;;4965370;28;92971;-81
2023/10/25 11:44:03;;;;;;;3.05;1.23;;;;;;;;;;4970171;28;92737;-82
2023/10/25 11:46:58;;;;;;;5.47;1.40;;;;;;;;;;4968156;28;97185;-82
2023/10/25 11:49:25;;;;;;;3.17;1.30;;;;;;;;;;4966046;28;93242;-82
2023/10/25 11:51:55;;;;;;;2.53;1.15;;;;;;;;;;4967824;28;95478;-81
2023/10/25 11:54:22;;;;;;;3.55;1.30;;;;;;;;;;4963733;28;95440;-81
2023/10/25 11:56:48;;;;;;;3.53;1.20;;;;;;;;;;4966701;28;92481;-82
2023/10/25 11:59:15;;;;;;;3.42;1.30;;;;;;;;;;4970649;28;94073;-81
2023/10/25 12:01:41;;;;;;;3.42;1.20;;;;;;;;;;4966947;28;93162;-81
2023/10/25 12:04:09;;;;;;;2.45;1.20;;;;;;;;;;4966654;28;92976;-80
2023/10/25 12:06:37;;;;;;;2.90;1.20;;;;;;;;;;4969130;28;92707;-82
2023/10/25 12:09:04;;;;;;;2.85;1.20;;;;;;;;;;4966886;28;92610;-83
2023/10/25 12:11:30;;;;;;;3.25;1.17;;;;;;;;;;4966831;28;93489;-86
2023/10/25 12:13:57;;;;;;;3.95;1.27;;;;;;;;;;4967870;28;93329;-83
2023/10/25 12:16:23;;;;;;;2.15;1.20;;;;;;;;;;4978990;28;94258;-83
2023/10/25 12:18:50;;;;;;;3.22;1.23;;;;;;;;;;4972728;28;95289;-85
2023/10/25 12:21:17;;;;;;;2.70;1.40;;;;;;;;;;4966274;28;93579;-85
2023/10/25 12:23:43;;;;;;;3.65;1.13;;;;;;;;;;4966509;28;92559;-83
2023/10/25 12:26:11;;;;;;;2.05;1.10;;;;;;;;;;4963491;28;96116;-85
2023/10/25 12:28:37;;;;;;;3.58;1.30;;;;;;;;;;4973858;28;94244;-84
2023/10/25 12:31:04;;;;;;;2.90;1.35;;;;;;;;;;4965103;28;94738;-85
2023/10/25 12:33:30;;;;;;;2.63;1.27;;;;;;;;;;4970661;28;93242;-85
2023/10/25 12:35:57;;;;;;;2.75;1.30;;;;;;;;;;4965825;28;91806;-85
2023/10/25 12:38:24;;;;;;;2.80;1.20;;;;;;;;;;4967954;28;92541;-83
2023/10/25 12:40:50;;;;;;;3.72;1.20;;;;;;;;;;4968668;28;93557;-84
2023/10/25 12:43:17;;;;;;;4.40;1.20;;;;;;;;;;4964518;28;95580;-84
2023/10/25 12:45:43;;;;;;;3.03;1.10;;;;;;;;;;4966744;28;95069;-84
2023/10/25 12:48:10;;;;;;;3.10;1.15;;;;;;;;;;4965318;28;93675;-83
2023/10/25 12:50:37;;;;;;;2.75;1.30;;;;;;;;;;4966940;28;92775;-84
2023/10/25 12:53:03;;;;;;;4.53;1.48;;;;;;;;;;4957765;28;93141;-83
2023/10/25 12:55:30;;;;;;;2.33;1.10;;;;;;;;;;4966616;28;93573;-84
2023/10/25 12:57:56;;;;;;;2.45;1.10;;;;;;;;;;4969523;28;93066;-82
2023/10/25 13:00:23;;;;;;;3.65;1.20;;;;;;;;;;4968962;28;91842;-85
2023/10/25 13:02:49;;;;;;;3.22;1.30;;;;;;;;;;4969575;28;94121;-84
2023/10/25 13:05:16;;;;;;;2.92;1.20;;;;;;;;;;4969161;28;93198;-84
2023/10/25 13:07:43;;;;;;;3.30;1.10;;;;;;;;;;4964914;28;98374;-82
2023/10/25 13:10:10;;;;;;;3.65;1.30;;;;;;;;;;4969174;28;92578;-80
2023/10/25 13:12:37;;;;;;;2.58;1.10;;;;;;;;;;4972017;28;94178;-85
2023/10/25 13:15:04;;;;;;;;;;;;;;;;;;4962338;28;92962;-83
2023/10/25 13:17:31;;;;;;;3.58;1.10;;;;;;;;;;4971196;28;92437;-84
2023/10/25 13:19:58;;;;;;;3.08;1.15;;;;;;;;;;4971051;28;92761;-81
2023/10/25 13:22:25;;;;;;;2.08;0.93;;;;;;;;;;4972113;28;92462;-82
2023/10/25 13:24:51;;;;;;;4.22;1.20;;;;;;;;;;4971130;28;93886;-82
2023/10/25 13:27:18;;;;;;;3.33;1.15;;;;;;;;;;4980180;28;92552;-86
2023/10/25 13:29:44;;;;;;;2.17;1.17;;;;;;;;;;4988710;28;92472;-82
2023/10/25 13:32:11;;;;;;;3.42;1.40;;;;;;;;;;4983800;28;94858;-83
2023/10/25 13:34:38;;;;;;;3.33;1.30;;;;;;;;;;4984677;28;92526;-85
2023/10/25 13:37:06;;;;;;;2.90;1.23;;;;;;;;;;4983934;28;96525;-82
2023/10/25 13:39:33;;;;;;;1.85;1.13;;;;;;;;;;4984158;28;94090;-84
2023/10/25 13:41:59;;;;;;;2.15;1.10;;;;;;;;;;4986215;28;92922;-85
2023/10/25 13:44:26;;;;;;;3.05;1.10;;;;;;;;;;4985594;28;92400;-84
2023/10/25 13:46:52;;;;;;;2.67;1.20;;;;;;;;;;4978881;28;93224;-84
2023/10/25 13:49:19;;;;;;;3.13;1.00;;;;;;;;;;4977628;28;91649;-84
2023/10/25 13:51:45;;;;;;;2.90;1.30;;;;;;;;;;4971029;28;93827;-84
2023/10/25 13:54:12;;;;;;;3.50;1.10;;;;;;;;;;4972059;28;92733;-84
2023/10/25 13:56:38;;;;;;;3.65;1.10;;;;;;;;;;4969015;28;94868;-83
2023/10/25 13:59:05;;;;;;;5.03;1.30;;;;;;;;;;4985197;28;92565;-84
2023/10/25 14:01:31;;;;;;;2.92;1.02;;;;;;;;;;4968091;28;92604;-83
2023/10/25 14:03:58;;;;;;;3.38;1.30;;;;;;;;;;4968757;28;93474;-82
2023/10/25 14:06:25;;;;;;;2.05;0.90;;;;;;;;;;4968633;28;93024;-81
2023/10/25 14:08:51;;;;;;;3.13;1.20;;;;;;;;;;4968839;28;92966;-82
2023/10/25 14:11:18;;;;;;;2.83;1.02;;;;;;;;;;4953819;28;92642;-82
2023/10/25 14:13:45;;;;;;;1.90;1.15;;;;;;;;;;4974988;28;92341;-82
2023/10/25 14:16:12;;;;;;;2.55;1.02;;;;;;;;;;4971577;28;92925;-82
2023/10/25 14:18:38;;;;;;;4.32;1.10;;;;;;;;;;4966166;28;93322;-82
2023/10/25 14:21:09;;;;;;;2.35;1.10;;;;;;;;;;4968197;28;95630;-81
2023/10/25 14:23:39;;;;;;;3.60;1.10;;;;;;;;;;4982844;28;95205;-82
2023/10/25 14:26:07;;;;;;;2.38;1.27;;;;;;;;;;4970168;28;93020;-81
2023/10/25 14:28:34;;;;;;;2.13;1.02;;;;;;;;;;4969151;28;92438;-82
2023/10/25 14:31:01;;;;;;;3.05;1.15;;;;;;;;;;4958500;28;93397;-82
2023/10/25 14:33:28;;;;;;;1.95;1.00;;;;;;;;;;4967451;28;93819;-81
2023/10/25 14:35:56;;;;;;;2.35;0.95;;;;;;;;;;4968630;28;95343;-82
2023/10/25 14:38:23;;;;;;;2.15;1.10;;;;;;;;;;4971627;28;92805;-81
2023/10/25 14:40:49;;;;;;;2.67;1.00;;;;;;;;;;4968920;28;92502;-81
2023/10/25 14:43:16;;;;;;;2.28;1.00;;;;;;;;;;4969509;28;93188;-81
2023/10/25 14:45:43;;;;;;;2.80;1.10;;;;;;;;;;4965498;28;95550;-82
2023/10/25 14:48:09;;;;;;;2.83;1.20;;;;;;;;;;4968060;28;93288;-81